sensor_id;sensor_type;location;lat;lon;timestamp;P1;durP1;ratioP1;P2;durP2;ratioP2
48789;SDS011;41718;51.980;5.734;2023-09-08T00:02:20;6.20;;;5.20;;
48789;SDS011;41718;51.980;5.734;2023-09-08T00:07:21;6.70;;;4.85;;
48789;SDS011;41718;51.980;5.734;2023-09-08T00:12:23;6.03;;;5.07;;
48789;SDS011;41718;51.980;5.734;2023-09-08T00:17:25;6.57;;;5.07;;
48789;SDS011;41718;51.980;5.734;2023-09-08T00:22:26;6.68;;;4.68;;
48789;SDS011;41718;51.980;5.734;2023-09-08T00:27:28;5.93;;;5.20;;
48789;SDS011;41718;51.980;5.734;2023-09-08T00:32:30;5.45;;;4.35;;
48789;SDS011;41718;51.980;5.734;2023-09-08T00:37:32;6.40;;;4.50;;
48789;SDS011;41718;51.980;5.734;2023-09-08T00:42:33;6.43;;;5.35;;
48789;SDS011;41718;51.980;5.734;2023-09-08T00:47:35;5.70;;;4.90;;
48789;SDS011;41718;51.980;5.734;2023-09-08T00:52:37;5.13;;;4.53;;
48789;SDS011;41718;51.980;5.734;2023-09-08T00:57:39;7.53;;;4.60;;
48789;SDS011;41718;51.980;5.734;2023-09-08T01:02:40;5.00;;;4.55;;
48789;SDS011;41718;51.980;5.734;2023-09-08T01:07:42;7.57;;;5.05;;
48789;SDS011;41718;51.980;5.734;2023-09-08T01:12:45;6.65;;;5.25;;
48789;SDS011;41718;51.980;5.734;2023-09-08T01:17:47;6.53;;;5.32;;
48789;SDS011;41718;51.980;5.734;2023-09-08T01:23:01;8.13;;;5.20;;
48789;SDS011;41718;51.980;5.734;2023-09-08T01:28:11;5.47;;;4.70;;
48789;SDS011;41718;51.980;5.734;2023-09-08T01:33:13;7.50;;;4.97;;
48789;SDS011;41718;51.980;5.734;2023-09-08T01:38:15;7.15;;;4.40;;
48789;SDS011;41718;51.980;5.734;2023-09-08T01:43:17;6.63;;;5.55;;
48789;SDS011;41718;51.980;5.734;2023-09-08T01:48:19;7.20;;;4.68;;
48789;SDS011;41718;51.980;5.734;2023-09-08T01:53:20;7.28;;;5.28;;
48789;SDS011;41718;51.980;5.734;2023-09-08T01:58:22;6.30;;;5.20;;
48789;SDS011;41718;51.980;5.734;2023-09-08T02:03:23;6.97;;;4.60;;
48789;SDS011;41718;51.980;5.734;2023-09-08T02:08:25;5.65;;;4.53;;
48789;SDS011;41718;51.980;5.734;2023-09-08T02:13:26;8.77;;;4.40;;
48789;SDS011;41718;51.980;5.734;2023-09-08T02:18:28;5.10;;;4.40;;
48789;SDS011;41718;51.980;5.734;2023-09-08T02:23:30;6.55;;;4.90;;
48789;SDS011;41718;51.980;5.734;2023-09-08T02:28:31;8.88;;;5.50;;
48789;SDS011;41718;51.980;5.734;2023-09-08T02:33:34;6.53;;;5.03;;
48789;SDS011;41718;51.980;5.734;2023-09-08T02:38:35;6.25;;;4.28;;
48789;SDS011;41718;51.980;5.734;2023-09-08T02:43:38;5.70;;;4.95;;
48789;SDS011;41718;51.980;5.734;2023-09-08T02:48:40;5.90;;;4.40;;
48789;SDS011;41718;51.980;5.734;2023-09-08T02:53:42;4.53;;;3.95;;
48789;SDS011;41718;51.980;5.734;2023-09-08T02:58:44;5.85;;;5.15;;
48789;SDS011;41718;51.980;5.734;2023-09-08T03:03:45;6.18;;;5.15;;
48789;SDS011;41718;51.980;5.734;2023-09-08T03:08:49;5.50;;;4.95;;
48789;SDS011;41718;51.980;5.734;2023-09-08T03:13:50;5.50;;;4.90;;
48789;SDS011;41718;51.980;5.734;2023-09-08T03:18:52;8.10;;;4.85;;
48789;SDS011;41718;51.980;5.734;2023-09-08T03:23:54;8.13;;;5.40;;
48789;SDS011;41718;51.980;5.734;2023-09-08T03:28:55;5.57;;;4.78;;
48789;SDS011;41718;51.980;5.734;2023-09-08T03:33:57;6.53;;;5.05;;
48789;SDS011;41718;51.980;5.734;2023-09-08T03:38:59;8.75;;;5.50;;
48789;SDS011;41718;51.980;5.734;2023-09-08T03:44:00;8.02;;;5.13;;
48789;SDS011;41718;51.980;5.734;2023-09-08T03:49:02;7.63;;;5.68;;
48789;SDS011;41718;51.980;5.734;2023-09-08T03:54:04;4.88;;;4.38;;
48789;SDS011;41718;51.980;5.734;2023-09-08T03:59:07;6.07;;;5.22;;
48789;SDS011;41718;51.980;5.734;2023-09-08T04:04:08;5.95;;;5.10;;
48789;SDS011;41718;51.980;5.734;2023-09-08T04:09:10;8.18;;;4.85;;
48789;SDS011;41718;51.980;5.734;2023-09-08T04:14:11;5.72;;;5.00;;
48789;SDS011;41718;51.980;5.734;2023-09-08T04:19:13;7.72;;;5.70;;
48789;SDS011;41718;51.980;5.734;2023-09-08T04:24:14;5.70;;;4.95;;
48789;SDS011;41718;51.980;5.734;2023-09-08T04:29:16;5.15;;;4.50;;
48789;SDS011;41718;51.980;5.734;2023-09-08T04:34:18;8.00;;;5.13;;
48789;SDS011;41718;51.980;5.734;2023-09-08T04:39:19;9.48;;;5.50;;
48789;SDS011;41718;51.980;5.734;2023-09-08T04:44:21;9.25;;;6.30;;
48789;SDS011;41718;51.980;5.734;2023-09-08T04:49:24;5.78;;;5.15;;
48789;SDS011;41718;51.980;5.734;2023-09-08T04:54:25;7.68;;;5.70;;
48789;SDS011;41718;51.980;5.734;2023-09-08T04:59:28;7.22;;;5.88;;
48789;SDS011;41718;51.980;5.734;2023-09-08T05:04:30;6.85;;;5.45;;
48789;SDS011;41718;51.980;5.734;2023-09-08T05:09:34;6.55;;;5.10;;
48789;SDS011;41718;51.980;5.734;2023-09-08T05:14:36;8.57;;;5.18;;
48789;SDS011;41718;51.980;5.734;2023-09-08T05:19:40;9.32;;;4.95;;
48789;SDS011;41718;51.980;5.734;2023-09-08T05:24:42;10.63;;;5.80;;
48789;SDS011;41718;51.980;5.734;2023-09-08T05:29:44;6.97;;;4.30;;
48789;SDS011;41718;51.980;5.734;2023-09-08T05:34:45;7.10;;;5.20;;
48789;SDS011;41718;51.980;5.734;2023-09-08T05:39:47;6.60;;;5.35;;
48789;SDS011;41718;51.980;5.734;2023-09-08T05:44:48;8.55;;;5.25;;
48789;SDS011;41718;51.980;5.734;2023-09-08T05:49:50;8.35;;;5.50;;
48789;SDS011;41718;51.980;5.734;2023-09-08T05:54:51;9.60;;;6.32;;
48789;SDS011;41718;51.980;5.734;2023-09-08T05:59:53;9.82;;;7.07;;
48789;SDS011;41718;51.980;5.734;2023-09-08T06:04:55;13.32;;;7.97;;
48789;SDS011;41718;51.980;5.734;2023-09-08T06:09:57;13.32;;;9.77;;
48789;SDS011;41718;51.980;5.734;2023-09-08T06:14:59;15.18;;;11.02;;
48789;SDS011;41718;51.980;5.734;2023-09-08T06:20:01;17.40;;;12.77;;
48789;SDS011;41718;51.980;5.734;2023-09-08T06:25:03;19.30;;;12.18;;
48789;SDS011;41718;51.980;5.734;2023-09-08T06:30:05;19.75;;;13.25;;
48789;SDS011;41718;51.980;5.734;2023-09-08T06:35:07;19.67;;;13.23;;
48789;SDS011;41718;51.980;5.734;2023-09-08T06:40:09;14.93;;;11.48;;
48789;SDS011;41718;51.980;5.734;2023-09-08T06:45:11;17.15;;;11.10;;
48789;SDS011;41718;51.980;5.734;2023-09-08T06:50:12;16.13;;;10.48;;
48789;SDS011;41718;51.980;5.734;2023-09-08T06:55:14;13.13;;;9.70;;
48789;SDS011;41718;51.980;5.734;2023-09-08T07:00:17;14.52;;;10.40;;
48789;SDS011;41718;51.980;5.734;2023-09-08T07:05:19;15.70;;;11.38;;
48789;SDS011;41718;51.980;5.734;2023-09-08T07:10:21;12.93;;;10.25;;
48789;SDS011;41718;51.980;5.734;2023-09-08T07:15:22;12.65;;;9.77;;
48789;SDS011;41718;51.980;5.734;2023-09-08T07:20:24;13.20;;;9.77;;
48789;SDS011;41718;51.980;5.734;2023-09-08T07:25:28;14.85;;;9.38;;
48789;SDS011;41718;51.980;5.734;2023-09-08T07:30:31;13.02;;;9.50;;
48789;SDS011;41718;51.980;5.734;2023-09-08T07:35:36;16.95;;;10.20;;
48789;SDS011;41718;51.980;5.734;2023-09-08T07:40:38;14.43;;;10.23;;
48789;SDS011;41718;51.980;5.734;2023-09-08T07:45:40;15.25;;;10.82;;
48789;SDS011;41718;51.980;5.734;2023-09-08T07:50:41;12.02;;;9.20;;
48789;SDS011;41718;51.980;5.734;2023-09-08T07:55:43;15.40;;;9.52;;
48789;SDS011;41718;51.980;5.734;2023-09-08T08:00:45;12.30;;;10.27;;
48789;SDS011;41718;51.980;5.734;2023-09-08T08:05:46;13.10;;;9.73;;
48789;SDS011;41718;51.980;5.734;2023-09-08T08:10:49;15.15;;;9.77;;
48789;SDS011;41718;51.980;5.734;2023-09-08T08:15:50;12.50;;;9.60;;
48789;SDS011;41718;51.980;5.734;2023-09-08T08:20:52;13.75;;;9.90;;
48789;SDS011;41718;51.980;5.734;2023-09-08T08:25:54;13.00;;;9.90;;
48789;SDS011;41718;51.980;5.734;2023-09-08T08:30:55;12.15;;;10.25;;
48789;SDS011;41718;51.980;5.734;2023-09-08T08:35:58;13.52;;;10.35;;
48789;SDS011;41718;51.980;5.734;2023-09-08T08:41:03;13.25;;;9.80;;
48789;SDS011;41718;51.980;5.734;2023-09-08T08:46:05;11.75;;;8.73;;
48789;SDS011;41718;51.980;5.734;2023-09-08T08:51:08;10.60;;;8.50;;
48789;SDS011;41718;51.980;5.734;2023-09-08T08:56:11;12.40;;;8.93;;
48789;SDS011;41718;51.980;5.734;2023-09-08T09:01:13;11.48;;;8.70;;
48789;SDS011;41718;51.980;5.734;2023-09-08T09:06:18;14.13;;;8.40;;
48789;SDS011;41718;51.980;5.734;2023-09-08T09:11:19;11.15;;;8.00;;
48789;SDS011;41718;51.980;5.734;2023-09-08T09:16:21;9.70;;;8.27;;
48789;SDS011;41718;51.980;5.734;2023-09-08T09:21:23;11.18;;;8.05;;
48789;SDS011;41718;51.980;5.734;2023-09-08T09:26:25;13.85;;;9.25;;
48789;SDS011;41718;51.980;5.734;2023-09-08T09:31:27;10.35;;;8.75;;
48789;SDS011;41718;51.980;5.734;2023-09-08T09:36:28;11.52;;;8.75;;
48789;SDS011;41718;51.980;5.734;2023-09-08T09:41:30;11.85;;;10.10;;
48789;SDS011;41718;51.980;5.734;2023-09-08T09:46:33;15.10;;;9.02;;
48789;SDS011;41718;51.980;5.734;2023-09-08T09:51:34;9.43;;;7.70;;
48789;SDS011;41718;51.980;5.734;2023-09-08T09:56:42;9.02;;;8.15;;
48789;SDS011;41718;51.980;5.734;2023-09-08T10:01:47;10.80;;;7.75;;
48789;SDS011;41718;51.980;5.734;2023-09-08T10:06:48;9.23;;;7.68;;
48789;SDS011;41718;51.980;5.734;2023-09-08T10:11:50;14.07;;;8.20;;
48789;SDS011;41718;51.980;5.734;2023-09-08T10:16:56;8.70;;;6.57;;
48789;SDS011;41718;51.980;5.734;2023-09-08T10:22:01;8.07;;;6.60;;
48789;SDS011;41718;51.980;5.734;2023-09-08T10:27:10;9.15;;;6.90;;
48789;SDS011;41718;51.980;5.734;2023-09-08T10:32:13;8.57;;;6.30;;
48789;SDS011;41718;51.980;5.734;2023-09-08T10:37:19;6.75;;;5.90;;
48789;SDS011;41718;51.980;5.734;2023-09-08T10:42:24;7.10;;;6.18;;
48789;SDS011;41718;51.980;5.734;2023-09-08T10:47:32;8.60;;;6.60;;
48789;SDS011;41718;51.980;5.734;2023-09-08T10:52:38;7.32;;;6.38;;
48789;SDS011;41718;51.980;5.734;2023-09-08T10:57:44;6.85;;;6.15;;
48789;SDS011;41718;51.980;5.734;2023-09-08T11:02:49;7.47;;;5.47;;
48789;SDS011;41718;51.980;5.734;2023-09-08T11:07:56;7.30;;;5.43;;
48789;SDS011;41718;51.980;5.734;2023-09-08T11:12:57;6.85;;;5.53;;
48789;SDS011;41718;51.980;5.734;2023-09-08T11:18:04;8.27;;;5.55;;
48789;SDS011;41718;51.980;5.734;2023-09-08T11:28:23;6.00;;;5.28;;
48789;SDS011;41718;51.980;5.734;2023-09-08T11:33:25;6.90;;;5.50;;
48789;SDS011;41718;51.980;5.734;2023-09-08T11:38:28;5.25;;;4.72;;
48789;SDS011;41718;51.980;5.734;2023-09-08T11:43:36;7.68;;;6.30;;
48789;SDS011;41718;51.980;5.734;2023-09-08T11:48:40;5.00;;;4.50;;
48789;SDS011;41718;51.980;5.734;2023-09-08T11:53:42;5.90;;;4.63;;
48789;SDS011;41718;51.980;5.734;2023-09-08T11:58:44;6.10;;;5.22;;
48789;SDS011;41718;51.980;5.734;2023-09-08T12:03:55;5.93;;;5.07;;
48789;SDS011;41718;51.980;5.734;2023-09-08T12:09:07;4.75;;;4.25;;
48789;SDS011;41718;51.980;5.734;2023-09-08T12:14:11;5.75;;;5.00;;
48789;SDS011;41718;51.980;5.734;2023-09-08T12:19:31;4.28;;;3.63;;
48789;SDS011;41718;51.980;5.734;2023-09-08T12:24:50;6.00;;;4.43;;
48789;SDS011;41718;51.980;5.734;2023-09-08T12:30:04;7.07;;;5.18;;
48789;SDS011;41718;51.980;5.734;2023-09-08T12:35:20;4.97;;;4.07;;
48789;SDS011;41718;51.980;5.734;2023-09-08T12:40:43;4.82;;;4.07;;
48789;SDS011;41718;51.980;5.734;2023-09-08T12:46:00;4.93;;;4.15;;
48789;SDS011;41718;51.980;5.734;2023-09-08T12:51:13;5.68;;;4.38;;
48789;SDS011;41718;51.980;5.734;2023-09-08T12:56:23;4.13;;;3.72;;
48789;SDS011;41718;51.980;5.734;2023-09-08T13:01:44;4.47;;;3.78;;
48789;SDS011;41718;51.980;5.734;2023-09-08T13:13:28;4.60;;;4.20;;
48789;SDS011;41718;51.980;5.734;2023-09-08T13:18:43;6.78;;;3.80;;
48789;SDS011;41718;51.980;5.734;2023-09-08T13:23:48;4.82;;;3.92;;
48789;SDS011;41718;51.980;5.734;2023-09-08T13:28:52;4.40;;;3.80;;
48789;SDS011;41718;51.980;5.734;2023-09-08T13:33:54;6.05;;;4.40;;
48789;SDS011;41718;51.980;5.734;2023-09-08T13:38:57;9.23;;;4.63;;
48789;SDS011;41718;51.980;5.734;2023-09-08T13:43:59;5.22;;;3.97;;
48789;SDS011;41718;51.980;5.734;2023-09-08T13:49:01;5.68;;;4.82;;
48789;SDS011;41718;51.980;5.734;2023-09-08T13:54:05;6.28;;;4.63;;
48789;SDS011;41718;51.980;5.734;2023-09-08T13:59:08;8.32;;;5.35;;
48789;SDS011;41718;51.980;5.734;2023-09-08T14:04:19;4.88;;;4.28;;
48789;SDS011;41718;51.980;5.734;2023-09-08T14:09:29;5.40;;;4.63;;
48789;SDS011;41718;51.980;5.734;2023-09-08T14:14:33;5.32;;;4.82;;
48789;SDS011;41718;51.980;5.734;2023-09-08T14:19:35;8.13;;;4.65;;
48789;SDS011;41718;51.980;5.734;2023-09-08T14:24:37;3.90;;;3.50;;
48789;SDS011;41718;51.980;5.734;2023-09-08T14:29:39;6.53;;;5.15;;
48789;SDS011;41718;51.980;5.734;2023-09-08T14:34:43;7.38;;;4.95;;
48789;SDS011;41718;51.980;5.734;2023-09-08T14:39:48;5.93;;;4.70;;
48789;SDS011;41718;51.980;5.734;2023-09-08T14:44:50;8.02;;;5.57;;
48789;SDS011;41718;51.980;5.734;2023-09-08T14:49:53;5.53;;;5.03;;
48789;SDS011;41718;51.980;5.734;2023-09-08T14:59:58;6.43;;;5.10;;
48789;SDS011;41718;51.980;5.734;2023-09-08T15:05:00;5.63;;;5.13;;
48789;SDS011;41718;51.980;5.734;2023-09-08T15:10:09;5.85;;;5.13;;
48789;SDS011;41718;51.980;5.734;2023-09-08T15:15:12;7.85;;;5.25;;
48789;SDS011;41718;51.980;5.734;2023-09-08T15:20:14;8.15;;;5.32;;
48789;SDS011;41718;51.980;5.734;2023-09-08T15:25:15;6.28;;;4.95;;
48789;SDS011;41718;51.980;5.734;2023-09-08T15:30:17;5.05;;;4.55;;
48789;SDS011;41718;51.980;5.734;2023-09-08T15:35:19;5.75;;;4.85;;
48789;SDS011;41718;51.980;5.734;2023-09-08T15:40:20;7.47;;;5.50;;
48789;SDS011;41718;51.980;5.734;2023-09-08T15:45:22;6.97;;;4.80;;
48789;SDS011;41718;51.980;5.734;2023-09-08T15:50:24;8.82;;;5.10;;
48789;SDS011;41718;51.980;5.734;2023-09-08T15:55:28;6.20;;;4.68;;
48789;SDS011;41718;51.980;5.734;2023-09-08T16:00:30;7.40;;;4.70;;
48789;SDS011;41718;51.980;5.734;2023-09-08T16:05:34;5.88;;;4.45;;
48789;SDS011;41718;51.980;5.734;2023-09-08T16:10:35;10.63;;;4.28;;
48789;SDS011;41718;51.980;5.734;2023-09-08T16:15:37;5.88;;;4.72;;
48789;SDS011;41718;51.980;5.734;2023-09-08T16:20:40;11.32;;;5.28;;
48789;SDS011;41718;51.980;5.734;2023-09-08T16:25:41;5.50;;;4.97;;
48789;SDS011;41718;51.980;5.734;2023-09-08T16:30:43;5.68;;;4.95;;
48789;SDS011;41718;51.980;5.734;2023-09-08T16:35:44;7.45;;;5.00;;
48789;SDS011;41718;51.980;5.734;2023-09-08T16:40:46;4.57;;;4.18;;
48789;SDS011;41718;51.980;5.734;2023-09-08T16:45:48;5.65;;;4.22;;
48789;SDS011;41718;51.980;5.734;2023-09-08T16:50:49;5.07;;;4.57;;
48789;SDS011;41718;51.980;5.734;2023-09-08T16:55:51;5.10;;;4.53;;
48789;SDS011;41718;51.980;5.734;2023-09-08T17:00:52;4.68;;;4.20;;
48789;SDS011;41718;51.980;5.734;2023-09-08T17:05:54;4.80;;;4.28;;
48789;SDS011;41718;51.980;5.734;2023-09-08T17:10:56;6.47;;;4.60;;
48789;SDS011;41718;51.980;5.734;2023-09-08T17:15:59;5.40;;;4.93;;
48789;SDS011;41718;51.980;5.734;2023-09-08T17:21:01;6.28;;;4.78;;
48789;SDS011;41718;51.980;5.734;2023-09-08T17:26:03;6.57;;;4.45;;
48789;SDS011;41718;51.980;5.734;2023-09-08T17:31:04;5.78;;;4.68;;
48789;SDS011;41718;51.980;5.734;2023-09-08T17:36:12;5.80;;;4.97;;
48789;SDS011;41718;51.980;5.734;2023-09-08T17:41:13;6.95;;;5.75;;
48789;SDS011;41718;51.980;5.734;2023-09-08T17:46:15;5.80;;;4.95;;
48789;SDS011;41718;51.980;5.734;2023-09-08T17:51:17;7.15;;;5.63;;
48789;SDS011;41718;51.980;5.734;2023-09-08T17:56:18;6.70;;;5.75;;
48789;SDS011;41718;51.980;5.734;2023-09-08T18:01:20;5.72;;;5.22;;
48789;SDS011;41718;51.980;5.734;2023-09-08T18:06:22;6.28;;;5.43;;
48789;SDS011;41718;51.980;5.734;2023-09-08T18:11:23;5.75;;;5.25;;
48789;SDS011;41718;51.980;5.734;2023-09-08T18:16:25;6.57;;;5.75;;
48789;SDS011;41718;51.980;5.734;2023-09-08T18:21:27;6.75;;;5.30;;
48789;SDS011;41718;51.980;5.734;2023-09-08T18:26:29;7.43;;;5.32;;
48789;SDS011;41718;51.980;5.734;2023-09-08T18:31:30;6.47;;;5.88;;
48789;SDS011;41718;51.980;5.734;2023-09-08T18:36:33;6.28;;;5.68;;
48789;SDS011;41718;51.980;5.734;2023-09-08T18:41:35;6.55;;;5.70;;
48789;SDS011;41718;51.980;5.734;2023-09-08T18:46:37;7.00;;;5.72;;
48789;SDS011;41718;51.980;5.734;2023-09-08T18:51:39;6.50;;;5.85;;
48789;SDS011;41718;51.980;5.734;2023-09-08T18:56:41;8.65;;;6.35;;
48789;SDS011;41718;51.980;5.734;2023-09-08T19:01:43;8.15;;;5.85;;
48789;SDS011;41718;51.980;5.734;2023-09-08T19:06:44;7.30;;;6.45;;
48789;SDS011;41718;51.980;5.734;2023-09-08T19:11:47;7.22;;;5.90;;
48789;SDS011;41718;51.980;5.734;2023-09-08T19:16:53;7.35;;;6.45;;
48789;SDS011;41718;51.980;5.734;2023-09-08T19:21:57;7.85;;;6.43;;
48789;SDS011;41718;51.980;5.734;2023-09-08T19:26:59;9.43;;;7.20;;
48789;SDS011;41718;51.980;5.734;2023-09-08T19:32:07;8.60;;;6.85;;
48789;SDS011;41718;51.980;5.734;2023-09-08T19:37:11;7.22;;;6.63;;
48789;SDS011;41718;51.980;5.734;2023-09-08T19:42:16;7.18;;;6.53;;
48789;SDS011;41718;51.980;5.734;2023-09-08T19:47:19;7.15;;;6.30;;
48789;SDS011;41718;51.980;5.734;2023-09-08T19:52:22;7.07;;;6.38;;
48789;SDS011;41718;51.980;5.734;2023-09-08T19:57:26;6.80;;;6.20;;
48789;SDS011;41718;51.980;5.734;2023-09-08T20:02:27;6.75;;;6.03;;
48789;SDS011;41718;51.980;5.734;2023-09-08T20:07:29;6.38;;;5.72;;
48789;SDS011;41718;51.980;5.734;2023-09-08T20:12:31;8.98;;;6.88;;
48789;SDS011;41718;51.980;5.734;2023-09-08T20:17:41;11.15;;;8.18;;
48789;SDS011;41718;51.980;5.734;2023-09-08T20:22:44;8.50;;;7.20;;
48789;SDS011;41718;51.980;5.734;2023-09-08T20:27:54;9.00;;;7.93;;
48789;SDS011;41718;51.980;5.734;2023-09-08T20:32:59;7.63;;;6.93;;
48789;SDS011;41718;51.980;5.734;2023-09-08T20:38:01;7.10;;;6.20;;
48789;SDS011;41718;51.980;5.734;2023-09-08T20:43:04;8.88;;;7.68;;
48789;SDS011;41718;51.980;5.734;2023-09-08T20:48:06;8.10;;;7.30;;
48789;SDS011;41718;51.980;5.734;2023-09-08T20:53:10;7.93;;;6.67;;
48789;SDS011;41718;51.980;5.734;2023-09-08T20:58:12;9.18;;;6.82;;
48789;SDS011;41718;51.980;5.734;2023-09-08T21:03:14;7.63;;;6.82;;
48789;SDS011;41718;51.980;5.734;2023-09-08T21:08:16;8.82;;;7.78;;
48789;SDS011;41718;51.980;5.734;2023-09-08T21:13:19;8.82;;;6.78;;
48789;SDS011;41718;51.980;5.734;2023-09-08T21:18:21;10.10;;;8.10;;
48789;SDS011;41718;51.980;5.734;2023-09-08T21:23:23;9.18;;;7.47;;
48789;SDS011;41718;51.980;5.734;2023-09-08T21:28:25;7.90;;;6.75;;
48789;SDS011;41718;51.980;5.734;2023-09-08T21:33:29;7.28;;;6.55;;
48789;SDS011;41718;51.980;5.734;2023-09-08T21:38:32;7.40;;;6.60;;
48789;SDS011;41718;51.980;5.734;2023-09-08T21:43:35;8.70;;;6.53;;
48789;SDS011;41718;51.980;5.734;2023-09-08T21:48:39;12.48;;;9.02;;
48789;SDS011;41718;51.980;5.734;2023-09-08T21:53:42;8.88;;;7.53;;
48789;SDS011;41718;51.980;5.734;2023-09-08T21:58:43;8.70;;;7.80;;
48789;SDS011;41718;51.980;5.734;2023-09-08T22:03:47;8.40;;;7.15;;
48789;SDS011;41718;51.980;5.734;2023-09-08T22:08:49;9.20;;;6.82;;
48789;SDS011;41718;51.980;5.734;2023-09-08T22:13:51;7.63;;;6.63;;
48789;SDS011;41718;51.980;5.734;2023-09-08T22:18:52;7.47;;;6.05;;
48789;SDS011;41718;51.980;5.734;2023-09-08T22:23:54;7.72;;;6.47;;
48789;SDS011;41718;51.980;5.734;2023-09-08T22:28:57;8.68;;;7.80;;
48789;SDS011;41718;51.980;5.734;2023-09-08T22:33:59;9.02;;;8.10;;
48789;SDS011;41718;51.980;5.734;2023-09-08T22:39:02;9.52;;;8.27;;
48789;SDS011;41718;51.980;5.734;2023-09-08T22:44:10;9.57;;;7.35;;
48789;SDS011;41718;51.980;5.734;2023-09-08T22:49:14;10.18;;;7.05;;
48789;SDS011;41718;51.980;5.734;2023-09-08T22:54:16;7.93;;;6.60;;
48789;SDS011;41718;51.980;5.734;2023-09-08T22:59:20;9.20;;;6.35;;
48789;SDS011;41718;51.980;5.734;2023-09-08T23:04:22;6.70;;;5.72;;
48789;SDS011;41718;51.980;5.734;2023-09-08T23:09:28;7.78;;;6.13;;
48789;SDS011;41718;51.980;5.734;2023-09-08T23:14:30;7.53;;;6.40;;
48789;SDS011;41718;51.980;5.734;2023-09-08T23:19:32;7.80;;;7.00;;
48789;SDS011;41718;51.980;5.734;2023-09-08T23:24:34;7.43;;;6.78;;
48789;SDS011;41718;51.980;5.734;2023-09-08T23:29:35;10.98;;;7.95;;
48789;SDS011;41718;51.980;5.734;2023-09-08T23:34:37;10.13;;;8.80;;
48789;SDS011;41718;51.980;5.734;2023-09-08T23:39:38;9.45;;;8.35;;
48789;SDS011;41718;51.980;5.734;2023-09-08T23:44:40;10.63;;;8.20;;
48789;SDS011;41718;51.980;5.734;2023-09-08T23:49:42;10.05;;;8.45;;
48789;SDS011;41718;51.980;5.734;2023-09-08T23:54:44;8.82;;;7.80;;
48789;SDS011;41718;51.980;5.734;2023-09-08T23:59:46;5.55;;;5.05;;
